createdAt,value
2022-11-20T00:04:25.552Z,27.48
2022-11-20T00:09:28.062Z,24.42
2022-11-20T00:14:30.528Z,23.63
2022-11-20T00:19:33.060Z,24.63
2022-11-20T00:24:38.949Z,21.50
2022-11-20T00:29:45.285Z,25.75
2022-11-20T00:34:47.877Z,26.13
2022-11-20T00:39:50.376Z,27.48
2022-11-20T00:44:52.938Z,24.73
2022-11-20T00:49:55.547Z,25.23
2022-11-20T00:54:58.080Z,22.05
2022-11-20T01:00:00.555Z,30.92
2022-11-20T01:05:03.528Z,30.10
2022-11-20T01:10:06.875Z,27.10
2022-11-20T01:15:09.926Z,29.17
2022-11-20T01:20:12.619Z,33.78
2022-11-20T01:25:15.216Z,33.45
2022-11-20T01:30:17.725Z,27.75
2022-11-20T01:35:20.221Z,29.20
2022-11-20T01:40:22.635Z,27.33
2022-11-20T01:46:12.829Z,29.42
2022-11-20T01:51:35.412Z,24.25
2022-11-20T01:56:42.982Z,24.27
2022-11-20T02:01:45.941Z,27.05
2022-11-20T02:07:00.336Z,25.17
2022-11-20T02:12:04.471Z,25.30
2022-11-20T02:17:06.961Z,17.52
2022-11-20T02:22:37.186Z,19.83
2022-11-20T02:27:39.830Z,22.13
2022-11-20T02:32:42.347Z,20.38
2022-11-20T02:37:46.136Z,22.13
2022-11-20T02:42:48.777Z,21.23
2022-11-20T02:47:51.894Z,17.95
2022-11-20T02:52:54.370Z,17.15
2022-11-20T02:57:57.179Z,17.17
2022-11-20T03:02:59.637Z,13.32
2022-11-20T03:08:02.050Z,11.23
2022-11-20T03:13:04.590Z,15.65
2022-11-20T03:18:07.225Z,13.20
2022-11-20T03:23:09.828Z,9.52
2022-11-20T03:28:12.393Z,7.88
2022-11-20T03:33:14.885Z,4.22
2022-11-20T03:38:17.317Z,4.55
2022-11-20T03:43:19.776Z,4.05
2022-11-20T03:48:23.263Z,3.70
2022-11-20T03:53:27.108Z,4.25
2022-11-20T03:58:29.543Z,3.55
2022-11-20T04:03:32.040Z,3.40
2022-11-20T04:08:34.678Z,2.97
2022-11-20T04:13:38.403Z,3.70
2022-11-20T04:18:41.011Z,2.90
2022-11-20T04:23:43.576Z,3.92
2022-11-20T04:28:46.312Z,3.70
2022-11-20T04:33:48.852Z,3.10
2022-11-20T04:38:57.275Z,3.90
2022-11-20T04:44:04.470Z,3.38
2022-11-20T04:49:08.110Z,3.58
2022-11-20T04:54:12.848Z,4.53
2022-11-20T04:59:15.564Z,5.00
2022-11-20T05:04:18.117Z,5.65
2022-11-20T05:09:20.850Z,5.72
2022-11-20T05:14:23.682Z,5.25
2022-11-20T05:19:26.335Z,5.28
2022-11-20T05:24:28.864Z,7.75
2022-11-20T05:29:31.347Z,5.93
2022-11-20T05:34:34.055Z,4.57
2022-11-20T05:39:36.665Z,4.30
2022-11-20T05:44:39.128Z,4.85
2022-11-20T05:49:41.551Z,3.60
2022-11-20T05:54:43.974Z,4.88
2022-11-20T05:59:46.487Z,5.72
2022-11-20T06:04:49.022Z,3.72
2022-11-20T06:09:51.524Z,4.40
2022-11-20T06:14:54.068Z,3.65
2022-11-20T06:19:56.528Z,3.78
2022-11-20T06:24:58.993Z,6.53
2022-11-20T06:30:01.459Z,4.05
2022-11-20T06:35:06.306Z,4.70
2022-11-20T06:40:09.903Z,4.55
2022-11-20T06:45:12.550Z,6.70
2022-11-20T06:50:15.107Z,6.88
2022-11-20T06:55:17.689Z,6.80
2022-11-20T07:00:20.217Z,8.50
2022-11-20T07:05:22.676Z,3.00
2022-11-20T07:10:26.070Z,2.53
2022-11-20T07:15:28.657Z,3.22
2022-11-20T07:20:31.158Z,3.78
2022-11-20T07:25:34.268Z,3.45
2022-11-20T07:30:36.749Z,4.10
2022-11-20T07:35:39.767Z,3.83
2022-11-20T07:40:42.325Z,4.28
2022-11-20T07:45:44.812Z,4.70
2022-11-20T07:50:47.412Z,4.38
2022-11-20T07:55:50.270Z,5.00
2022-11-20T08:00:52.784Z,4.65
2022-11-20T08:05:55.263Z,4.00
2022-11-20T08:11:19.391Z,4.53
2022-11-20T08:16:23.017Z,4.03
2022-11-20T08:21:25.528Z,4.57
2022-11-20T08:26:28.760Z,6.45
2022-11-20T08:31:32.061Z,6.68
2022-11-20T08:36:36.276Z,6.20
2022-11-20T08:41:38.739Z,7.07
2022-11-20T08:46:42.949Z,6.32
2022-11-20T08:51:46.329Z,7.28
2022-11-20T08:56:49.283Z,7.60
2022-11-20T09:01:51.802Z,8.27
2022-11-20T09:06:54.428Z,8.65
2022-11-20T09:11:56.880Z,7.15
2022-11-20T09:16:59.495Z,7.85
2022-11-20T09:22:02.271Z,8.75
2022-11-20T09:27:13.138Z,8.77
2022-11-20T09:32:15.584Z,11.02
2022-11-20T09:37:18.124Z,7.50
2022-11-20T09:42:29.386Z,9.02
2022-11-20T09:47:56.136Z,6.10
2022-11-20T09:53:12.593Z,7.35
2022-11-20T09:58:40.884Z,9.27
2022-11-20T10:04:06.015Z,10.35
2022-11-20T10:09:14.216Z,8.55
2022-11-20T10:14:31.561Z,8.85
2022-11-20T10:19:49.769Z,6.22
2022-11-20T10:25:10.851Z,6.57
2022-11-20T10:30:19.123Z,7.45
2022-11-20T10:35:54.357Z,8.60
2022-11-20T10:41:21.202Z,6.82
2022-11-20T10:46:25.060Z,7.75
2022-11-20T10:51:32.939Z,5.13
2022-11-20T10:56:50.301Z,7.03
2022-11-20T11:01:52.936Z,6.13
2022-11-20T11:07:04.317Z,5.85
2022-11-20T11:12:11.021Z,9.73
2022-11-20T11:17:41.567Z,7.25
2022-11-20T11:22:50.305Z,7.45
2022-11-20T11:27:54.356Z,5.00
2022-11-20T11:33:07.995Z,8.52
2022-11-20T11:38:18.479Z,7.43
2022-11-20T11:43:46.068Z,7.68
2022-11-20T11:49:03.178Z,11.15
2022-11-20T11:54:21.591Z,9.32
2022-11-20T11:59:48.061Z,8.15
2022-11-20T12:04:58.968Z,6.75
2022-11-20T12:10:03.357Z,9.45
2022-11-20T12:15:12.382Z,9.43
2022-11-20T12:20:15.641Z,9.63
2022-11-20T12:25:29.877Z,9.98
2022-11-20T12:30:36.667Z,9.55
2022-11-20T12:35:39.155Z,8.15
2022-11-20T12:40:56.789Z,11.20
2022-11-20T12:46:18.574Z,7.40
2022-11-20T12:51:44.960Z,8.45
2022-11-20T12:57:15.076Z,11.40
2022-11-20T13:02:38.938Z,8.50
2022-11-20T13:07:43.368Z,8.07
2022-11-20T13:12:50.333Z,8.68
2022-11-20T13:17:59.091Z,10.10
2022-11-20T13:23:01.603Z,10.25
2022-11-20T13:28:23.969Z,9.88
2022-11-20T13:33:38.266Z,10.00
2022-11-20T13:38:54.913Z,11.55
2022-11-20T13:44:30.247Z,8.85
2022-11-20T13:49:44.835Z,9.02
2022-11-20T13:55:20.795Z,9.10
2022-11-20T14:00:26.448Z,10.63
2022-11-20T14:05:32.410Z,10.18
2022-11-20T14:10:34.972Z,12.07
2022-11-20T14:15:43.287Z,13.45
2022-11-20T14:20:47.876Z,13.48
2022-11-20T14:25:50.435Z,10.07
2022-11-20T14:30:53.975Z,10.45
2022-11-20T14:35:59.917Z,8.50
2022-11-20T14:41:20.255Z,7.20
2022-11-20T14:46:23.658Z,9.32
2022-11-20T14:51:42.447Z,7.47
2022-11-20T14:57:03.120Z,7.72
2022-11-20T15:02:10.546Z,9.07
2022-11-20T15:07:13.099Z,6.65
2022-11-20T15:12:19.473Z,7.15
2022-11-20T15:17:21.948Z,7.53
2022-11-20T15:22:24.435Z,6.68
2022-11-20T15:27:26.928Z,6.95
2022-11-20T15:32:29.414Z,9.73
2022-11-20T15:37:54.763Z,7.43
2022-11-20T15:43:13.064Z,7.97
2022-11-20T15:48:20.761Z,8.57
2022-11-20T15:58:25.809Z,9.35
2022-11-20T16:03:28.723Z,9.93
2022-11-20T16:08:31.195Z,9.75
2022-11-20T16:13:52.323Z,14.40
2022-11-20T16:18:54.806Z,11.35
2022-11-20T16:24:05.819Z,10.38
2022-11-20T16:29:08.783Z,10.85
2022-11-20T16:34:23.575Z,10.60
2022-11-20T16:39:26.618Z,13.57
2022-11-20T16:44:29.318Z,13.35
2022-11-20T16:49:33.524Z,12.95
2022-11-20T16:54:35.984Z,15.07
2022-11-20T16:59:38.550Z,16.35
2022-11-20T17:04:41.882Z,19.52
2022-11-20T17:09:44.456Z,23.05
2022-11-20T17:14:47.006Z,22.08
2022-11-20T17:19:52.521Z,21.52
2022-11-20T17:24:54.927Z,18.08
2022-11-20T17:29:59.502Z,14.38
2022-11-20T17:35:02.088Z,14.27
2022-11-20T17:40:06.245Z,19.13
2022-11-20T17:45:08.886Z,14.55
2022-11-20T17:50:11.422Z,14.93
2022-11-20T17:55:13.997Z,14.85
2022-11-20T18:00:17.988Z,13.07
2022-11-20T18:05:20.786Z,12.45
2022-11-20T18:10:23.345Z,16.80
2022-11-20T18:15:26.344Z,14.05
2022-11-20T18:20:32.029Z,18.25
2022-11-20T18:25:36.627Z,13.98
2022-11-20T18:30:39.108Z,9.48
2022-11-20T18:35:43.320Z,15.30
2022-11-20T18:40:45.835Z,10.57
2022-11-20T18:45:48.334Z,12.07
2022-11-20T18:50:50.827Z,12.32
2022-11-20T18:55:53.347Z,9.82
2022-11-20T19:00:55.892Z,13.85
2022-11-20T19:05:58.439Z,14.15
2022-11-20T19:11:08.840Z,13.68
2022-11-20T19:16:17.068Z,23.02
2022-11-20T19:21:22.607Z,17.42
2022-11-20T19:26:26.044Z,14.25
2022-11-20T19:31:29.279Z,15.88
2022-11-20T19:36:34.756Z,15.43
2022-11-20T19:41:39.159Z,13.82
2022-11-20T19:46:42.808Z,14.13
2022-11-20T19:51:48.273Z,13.18
2022-11-20T19:56:50.983Z,13.10
2022-11-20T20:01:53.524Z,17.50
2022-11-20T20:06:56.469Z,20.02
2022-11-20T20:11:58.961Z,15.68
2022-11-20T20:17:01.496Z,15.45
2022-11-20T20:22:03.978Z,15.73
2022-11-20T20:27:06.496Z,13.52
2022-11-20T20:32:09.158Z,15.65
2022-11-20T20:37:11.632Z,21.70
2022-11-20T20:42:14.235Z,16.27
2022-11-20T20:47:16.677Z,20.83
2022-11-20T20:52:19.302Z,21.50
2022-11-20T20:57:23.121Z,19.98
2022-11-20T21:02:26.194Z,23.60
2022-11-20T21:07:28.757Z,21.42
2022-11-20T21:12:31.300Z,20.30
2022-11-20T21:17:33.770Z,20.35
2022-11-20T21:22:36.639Z,21.02
2022-11-20T21:27:39.157Z,16.23
2022-11-20T21:32:41.689Z,19.02
2022-11-20T21:37:44.116Z,18.35
2022-11-20T21:42:46.648Z,20.23
2022-11-20T21:47:50.809Z,20.92
2022-11-20T21:52:53.437Z,24.88
2022-11-20T21:57:55.915Z,22.70
2022-11-20T22:02:58.482Z,20.52
2022-11-20T22:08:01.777Z,23.13
2022-11-20T22:13:22.813Z,20.95
2022-11-20T22:18:25.298Z,19.33
2022-11-20T22:23:27.795Z,20.48
2022-11-20T22:28:30.419Z,19.33
2022-11-20T22:33:33.707Z,19.17
2022-11-20T22:38:39.529Z,23.67
2022-11-20T22:43:43.483Z,22.17
2022-11-20T22:48:57.095Z,20.70
2022-11-20T22:54:00.542Z,20.00
2022-11-20T22:59:03.398Z,26.30
2022-11-20T23:04:10.029Z,24.38
2022-11-20T23:09:13.205Z,22.27
2022-11-20T23:14:16.514Z,21.67
2022-11-20T23:19:19.490Z,23.45
2022-11-20T23:24:22.043Z,22.58
2022-11-20T23:29:24.595Z,21.35
2022-11-20T23:34:27.288Z,21.25
2022-11-20T23:39:29.970Z,23.88
2022-11-20T23:44:32.470Z,22.92
2022-11-20T23:49:34.973Z,18.33
2022-11-20T23:54:37.536Z,19.38
2022-11-20T23:59:40.069Z,14.05
